• Join FlightAware (Why Join?)
  • Login
  • US Flag 
07:30AM EDT


 

Airport Tracker/Info


-or-


 

Live Flight TrackerFlight Track Log ✈ DAL4888 ✈ 19-Aug-2013 ✈ KMLU - KATL

Flight Track Log - Related Links

Times and Time Zones

All times are in EDT time to prevent confusion due to time zone crossing. See the DAL4888 flight status page for this flight to view local times or setup timezone preferences in your user account.

Time Position Orientation Groundspeed Altitude Reporting Facility
EDT Latitude Longitude Course Direction KTS MPH feet Rate Location/Type
08:45AM 32.5236 -91.8183 93° East 268 308 6,500  Level Memphis Center
08:46AM 32.5225 -91.7247 91° East 353 406 9,000 2,280 Climbing Memphis Center
08:47AM 32.5153 -91.6261 95° East 311 358 11,100 1,380 Climbing Memphis Center
08:48AM 32.4833 -91.4481 90° East  Level FlightAware Approximate
08:48AM 32.5122 -91.5200 92° East 306 352 11,800  Level Memphis Center
08:49AM 32.4833 -91.3577 90° East  Level FlightAware Approximate
08:49AM 32.5089 -91.4042 92° East 330 380 13,200  Level Memphis Center
08:50AM 32.4826 -91.2674 93° East  Level FlightAware Approximate
08:50AM 32.5036 -91.2836 93° East 349 402 14,800  Level Memphis Center
08:51AM 32.4961 -91.1603 94° East 368 423 16,100 1,260 Climbing Memphis Center
08:52AM 32.4925 -91.0469 92° East 376 433 17,400 1,080 Climbing Memphis Center
08:53AM 32.4892 -90.9214 92° East 376 433 18,300 900 Climbing Memphis Center
08:54AM 32.4833 -90.7908 93° East 388 447 19,200 900 Climbing Memphis Center
08:55AM 32.4775 -90.6578 93° East 393 452 20,100 900 Climbing Memphis Center
08:56AM 32.4694 -90.5247 94° East 398 458 21,000 900 Climbing Memphis Center
08:57AM 32.4653 -90.3917 92° East 404 465 21,900 900 Climbing Memphis Center
08:58AM 32.4569 -90.2589 94° East 404 465 22,800 780 Climbing Memphis Center
08:59AM 32.4503 -90.1258 93° East 404 465 23,500 600 Climbing Memphis Center
09:00AM 32.4439 -89.9881 93° East 404 465 24,000 540 Climbing Memphis Center
09:01AM 32.4350 -89.8503 94° East 410 472 24,600 660 Climbing Memphis Center
09:02AM 32.4300 -89.6953 92° East 422 486 25,400 660 Climbing Memphis Center
09:03AM 32.4208 -89.5550 94° East 422 486 26,000 600 Climbing Memphis Center
09:04AM 32.4136 -89.4125 93° East 422 486 26,600 600 Climbing Memphis Center
09:05AM 32.4061 -89.2697 94° East 422 486 27,200 600 Climbing Memphis Center
09:06AM 32.3964 -89.1272 95° East 427 491 27,800 600 Climbing Memphis Center
09:07AM 32.3886 -88.9844 94° East 427 491 28,400 600 Climbing Memphis Center
09:08AM 32.3808 -88.8394 94° East 427 491 29,000 600 Climbing Memphis Center
09:09AM 32.3936 -88.6942 84° East 427 491 29,600 540 Climbing Memphis Center
09:11AM 32.4331 -88.3553 82° East 459 528 31,000 360 Climbing Atlanta Center
09:12AM 32.4506 -88.2058 82° East 459 528 31,000  Level Atlanta Center
09:13AM 32.4681 -88.0567 82° East 459 528 31,000 -60 Level Atlanta Center
09:14AM 32.4894 -87.9147 80° East 472 543 30,900 -660 Descending Atlanta Center
09:15AM 32.5214 -87.7561 77° East 483 556 29,700 -960 Descending Atlanta Center
09:16AM 32.5575 -87.5925 75° East 496 571 29,000 -360 Descending Atlanta Center
09:17AM 32.5931 -87.4361 75° East 502 578 29,000  Level Atlanta Center
09:18AM 32.6247 -87.2769 77° East 502 578 29,000 -60 Level Atlanta Center
09:19AM 32.6600 -87.1206 75° East 497 572 28,900 -480 Descending Atlanta Center
09:20AM 32.6908 -86.9686 76° East 489 563 28,100 -840 Descending Atlanta Center
09:21AM 32.7281 -86.8019 75° East 489 563 27,300 -600 Descending Atlanta Center
09:22AM 32.7608 -86.6397 76° East 489 563 27,000 -180 Descending Atlanta Center
09:23AM 32.7933 -86.4803 76° East 489 563 27,000 -240 Level Atlanta Center
09:24AM 32.8278 -86.3181 76° East 483 556 26,600 -540 Descending Atlanta Center
09:25AM 32.8572 -86.1803 76° East 453 521 26,000 -600 Descending Atlanta Center
09:26AM 32.8825 -86.0497 77° East 427 491 25,500 -780 Descending Atlanta Center
09:27AM 32.8864 -85.9311 88° East 396 456 24,500 -1,020 Descending Atlanta Center
09:28AM 32.8694 -85.8047 99° East 375 432 23,500 -1,200 Descending Atlanta Center
09:29AM 32.8525 -85.6806 99° East 375 432 22,200 -1,320 Descending Atlanta Center
09:30AM 32.8308 -85.5617 102° East 370 426 20,900 -1,500 Descending Atlanta Center
09:31AM 32.8136 -85.4475 100° East 365 420 19,300 -1,620 Descending Atlanta Center
09:32AM 32.8356 -85.3442 76° East 333 383 17,700 -1,620 Descending Atlanta Center
09:33AM 32.9136 -85.2736 37° Northeast 301 346 16,100 -1,620 Descending Atlanta Center
09:34AM 32.9892 -85.2078 36° Northeast 312 359 14,500 -1,620 Descending Atlanta Center
09:35AM 33.0628 -85.1467 35° Northeast 317 365 12,900 -1,260 Descending Atlanta Center
09:36AM 33.1322 -85.0831 37° Northeast 317 365 12,000 -540 Descending Atlanta Center
09:37AM 33.1933 -85.0194 41° Northeast 300 345 11,900 -720 Descending Atlanta Center
09:38AM 33.2483 -84.9456 48° Northeast 295 339 10,600 -1,140 Descending Atlanta Center
09:39AM 33.3031 -84.8764 47° Northeast 288 331 9,700 -1,080 Descending Atlanta Center
09:40AM 33.3617 -84.8322 32° Northeast 288 331 8,500 -1,380 Descending Atlanta Center
09:41AM 33.4347 -84.8578 344° North 248 285 7,000 -1,560 Descending Atlanta Center
09:42AM 33.5075 -84.8808 345° North 261 300 5,400 -1,500 Descending Atlanta Center
09:43AM 33.5742 -84.9039 344° North 256 295 4,000 -720 Descending Atlanta Center
09:45AM 33.6167 -84.8167 60° Northeast 177 204 3,500 -420 Descending Atlanta TRACON
09:46AM 33.6167 -84.7667 90° East 172 198 3,000 -300 Descending Atlanta TRACON
09:47AM 33.6167 -84.7000 90° East 171 197 3,000  Level Atlanta TRACON
09:48AM 33.6167 -84.6500 90° East 169 194 3,000  Level Atlanta TRACON
09:49AM 33.6167 -84.5833 90° East 169 194 3,000 -300 Level Atlanta TRACON
09:50AM 33.6167 -84.5333 90° East 148 170 2,500 -720 Descending Atlanta TRACON
09:51AM 33.6167 -84.4833 90° East 141 162 1,700 -840 Descending Atlanta TRACON
09:53AM 33.6367 -84.4279 80° East  Level Estimated
10:00AM 33.6367 -84.4279 80° East  Level Estimated